Time;durP1;ratioP1;P1;durP2;ratioP2;P2;SDS_P1;SDS_P2;PMS_P1;PMS_P2;Temp;Humidity;BMP_temperature;BMP_pressure;BME280_temperature;BME280_humidity;BME280_pressure;Samples;Min_cycle;Max_cycle;Signal;HPM_P1;HPM_P2
2022/04/27 00:01:23;;;;;;;4.45;1.92;;;15.60;98.40;;;;;;5037083;28;20120;-72
2022/04/27 00:03:49;;;;;;;6.20;1.60;;;15.60;98.10;;;;;;5028006;28;20059;-71
2022/04/27 00:06:16;;;;;;;4.20;1.50;;;15.60;98.00;;;;;;5041580;28;20044;-72
2022/04/27 00:08:41;;;;;;;3.22;1.70;;;15.60;97.90;;;;;;5037931;28;20030;-72
2022/04/27 00:11:07;;;;;;;4.15;1.92;;;15.60;98.00;;;;;;5038326;28;20642;-72
2022/04/27 00:13:33;;;;;;;3.25;1.90;;;15.70;97.70;;;;;;5039804;28;20057;-71
2022/04/27 00:16:00;;;;;;;4.18;1.40;;;15.70;97.70;;;;;;5040457;28;20530;-72
2022/04/27 00:18:27;;;;;;;4.65;1.50;;;15.70;97.60;;;;;;5036453;28;20100;-71
2022/04/27 00:20:53;;;;;;;3.53;1.40;;;15.70;97.50;;;;;;5024417;28;20044;-72
2022/04/27 00:23:21;;;;;;;3.22;1.60;;;15.70;97.40;;;;;;5045328;28;20041;-72
2022/04/27 00:25:47;;;;;;;3.08;1.38;;;15.70;97.60;;;;;;5020257;28;20095;-72
2022/04/27 00:28:12;;;;;;;3.80;1.23;;;15.70;97.50;;;;;;5026751;28;20034;-72
2022/04/27 00:30:39;;;;;;;3.08;1.40;;;15.60;97.60;;;;;;5021240;28;20036;-71
2022/04/27 00:33:06;;;;;;;2.72;1.30;;;15.60;97.60;;;;;;5035908;28;20035;-72
2022/04/27 00:35:32;;;;;;;4.28;1.65;;;15.60;97.80;;;;;;5025964;28;20389;-72
2022/04/27 00:37:57;;;;;;;2.08;1.30;;;15.50;97.70;;;;;;5022464;28;20041;-71
2022/04/27 00:40:23;;;;;;;5.78;1.30;;;15.50;98.00;;;;;;5027719;28;20549;-71
2022/04/27 00:42:50;;;;;;;2.30;1.20;;;15.50;98.00;;;;;;5042967;28;20045;-71
2022/04/27 00:45:16;;;;;;;3.03;1.30;;;15.50;97.60;;;;;;5027247;28;20370;-71
2022/04/27 00:47:42;;;;;;;3.67;1.20;;;15.40;97.60;;;;;;5038427;28;20041;-72
2022/04/27 00:50:09;;;;;;;2.95;1.40;;;15.40;97.80;;;;;;5036779;28;20700;-72
2022/04/27 00:52:37;;;;;;;4.07;1.38;;;15.40;97.90;;;;;;5037980;28;20472;-71
2022/04/27 00:55:03;;;;;;;3.42;1.15;;;15.40;98.00;;;;;;5034999;28;20043;-72
2022/04/27 00:57:30;;;;;;;1.70;1.10;;;15.30;98.00;;;;;;5041385;28;20764;-72
2022/04/27 00:59:57;;;;;;;2.47;1.20;;;15.30;98.30;;;;;;5039129;28;20045;-72
2022/04/27 01:02:23;;;;;;;3.53;1.10;;;15.20;98.30;;;;;;5041204;28;20040;-72
2022/04/27 01:04:51;;;;;;;5.15;1.55;;;15.20;98.50;;;;;;5017349;28;20084;-72
2022/04/27 01:07:17;;;;;;;6.55;1.25;;;15.20;98.40;;;;;;5027535;28;20076;-72
2022/04/27 01:09:43;;;;;;;2.58;1.17;;;15.10;98.40;;;;;;5038316;28;20057;-72
2022/04/27 01:12:09;;;;;;;2.85;1.27;;;15.10;98.50;;;;;;5016196;28;20124;-72
2022/04/27 01:14:50;;;;;;;4.20;1.65;;;15.10;98.60;;;;;;5016807;28;20045;-72
2022/04/27 01:17:17;;;;;;;2.95;1.33;;;15.10;98.70;;;;;;5022044;28;20128;-72
2022/04/27 01:19:43;;;;;;;4.07;1.40;;;15.00;98.60;;;;;;5021353;28;20472;-72
2022/04/27 01:22:09;;;;;;;2.70;1.50;;;15.00;98.50;;;;;;5022504;28;20124;-72
2022/04/27 01:24:36;;;;;;;3.13;1.27;;;15.00;98.60;;;;;;5017176;28;20049;-71
2022/04/27 01:27:03;;;;;;;4.60;1.50;;;15.00;98.70;;;;;;5019862;28;20497;-73
2022/04/27 01:29:30;;;;;;;3.17;1.35;;;15.00;98.70;;;;;;5019664;28;20041;-72
2022/04/27 01:32:00;;;;;;;7.07;1.40;;;15.00;98.60;;;;;;5022515;28;20094;-71
2022/04/27 01:34:26;;;;;;;3.65;1.13;;;15.00;98.40;;;;;;5023475;28;20056;-72
2022/04/27 01:36:54;;;;;;;3.63;1.40;;;15.00;98.50;;;;;;5040387;28;20041;-71
2022/04/27 01:39:24;;;;;;;6.93;1.40;;;15.20;98.40;;;;;;5026750;28;20052;-72
2022/04/27 01:41:50;;;;;;;6.50;1.30;;;15.10;98.40;;;;;;5022058;28;20069;-71
2022/04/27 01:44:17;;;;;;;5.70;1.50;;;15.10;98.10;;;;;;5018338;28;20602;-72
2022/04/27 01:46:42;;;;;;;2.67;1.20;;;15.10;98.20;;;;;;5021189;28;20125;-72
2022/04/27 01:49:09;;;;;;;4.95;1.40;;;15.10;98.50;;;;;;5020590;28;20121;-72
2022/04/27 01:54:20;;;;;;;3.47;1.08;;;15.10;98.60;;;;;;5038388;28;20044;-72
2022/04/27 01:56:48;;;;;;;4.70;1.45;;;15.00;98.50;;;;;;5040498;28;20374;-72
2022/04/27 01:59:15;;;;;;;3.20;1.20;;;15.10;98.60;;;;;;5020714;28;20072;-72
2022/04/27 02:01:42;;;;;;;2.78;1.20;;;15.10;98.30;;;;;;5038089;28;20037;-72
2022/04/27 02:04:09;;;;;;;2.38;1.05;;;15.10;98.30;;;;;;5038797;28;20439;-72
2022/04/27 02:06:38;;;;;;;1.95;1.02;;;15.20;98.10;;;;;;5034012;28;20064;-72
2022/04/27 02:09:06;;;;;;;2.10;1.02;;;15.30;97.40;;;;;;5028415;28;20495;-72
2022/04/27 02:11:32;;;;;;;2.22;0.90;;;15.60;96.60;;;;;;5042770;28;20037;-72
2022/04/27 02:13:59;;;;;;;2.38;1.10;;;15.70;96.30;;;;;;5022444;28;20137;-72
2022/04/27 02:16:26;;;;;;;1.77;1.00;;;15.80;96.30;;;;;;5042433;28;20442;-72
2022/04/27 02:18:52;;;;;;;1.13;1.00;;;15.80;96.50;;;;;;5031676;28;20409;-70
2022/04/27 02:21:20;;;;;;;2.80;0.90;;;15.70;96.70;;;;;;5030004;28;20116;-72
2022/04/27 02:23:46;;;;;;;1.55;0.90;;;15.90;96.00;;;;;;5040870;28;20140;-72
2022/04/27 02:26:13;;;;;;;2.13;1.00;;;15.90;96.10;;;;;;5040615;28;20047;-72
2022/04/27 02:28:39;;;;;;;3.00;1.10;;;16.00;96.30;;;;;;5042237;28;20472;-72
2022/04/27 02:31:07;;;;;;;2.10;0.90;;;15.90;96.40;;;;;;5023499;28;20038;-72
2022/04/27 02:33:34;;;;;;;4.57;1.08;;;15.90;96.50;;;;;;5030888;28;20041;-70
2022/04/27 02:36:01;;;;;;;1.02;0.65;;;16.10;95.70;;;;;;5042187;28;20037;-72
2022/04/27 02:38:27;;;;;;;2.30;0.90;;;16.10;95.90;;;;;;5035540;28;20412;-72
2022/04/27 02:40:56;;;;;;;2.25;1.00;;;16.00;96.10;;;;;;5043337;28;20037;-72
2022/04/27 02:43:23;;;;;;;1.40;1.00;;;16.10;95.50;;;;;;5041781;28;20060;-73
2022/04/27 02:45:49;;;;;;;1.63;1.00;;;16.10;95.50;;;;;;5028213;28;20042;-72
2022/04/27 02:48:16;;;;;;;2.75;0.90;;;16.10;95.70;;;;;;5018404;28;20126;-72
2022/04/27 02:53:27;;;;;;;2.47;1.00;;;16.00;96.20;;;;;;5041280;28;20107;-71
2022/04/27 02:55:54;;;;;;;2.13;0.88;;;15.80;96.20;;;;;;5038881;28;20392;-72
2022/04/27 02:58:19;;;;;;;1.83;1.30;;;15.80;96.50;;;;;;5023943;28;20041;-71
2022/04/27 03:00:46;;;;;;;3.50;0.90;;;15.70;96.40;;;;;;5024051;28;20116;-72
2022/04/27 03:03:12;;;;;;;2.00;0.80;;;15.60;96.70;;;;;;5025808;28;20052;-71
2022/04/27 03:05:38;;;;;;;2.95;0.93;;;15.50;96.90;;;;;;5029640;28;20136;-71
2022/04/27 03:08:05;;;;;;;4.75;1.00;;;15.40;96.80;;;;;;5023196;28;20160;-72
2022/04/27 03:10:30;;;;;;;1.33;0.73;;;15.40;97.60;;;;;;5041340;28;20485;-71
2022/04/27 03:12:59;;;;;;;2.25;1.00;;;15.50;96.90;;;;;;5029725;28;20106;-73
2022/04/27 03:15:25;;;;;;;2.83;1.02;;;15.40;97.70;;;;;;5025735;28;20038;-71
2022/04/27 03:18:36;;;;;;;1.60;0.93;;;15.30;97.40;;;;;;5038234;28;20980;-71
2022/04/27 03:20:37;;;;;;;3.60;1.25;;;15.30;97.50;;;;;;5026916;28;20033;-71
2022/04/27 03:23:04;;;;;;;3.05;1.10;;;15.40;97.60;;;;;;5039122;28;20489;-72
2022/04/27 03:25:29;;;;;;;4.07;1.00;;;15.60;96.90;;;;;;5039598;28;20548;-71
2022/04/27 03:27:55;;;;;;;3.42;1.20;;;15.60;97.00;;;;;;5055526;28;20125;-72
2022/04/27 03:30:21;;;;;;;3.63;1.10;;;15.50;97.50;;;;;;5037436;28;20044;-71
2022/04/27 03:32:47;;;;;;;2.92;1.02;;;15.60;97.10;;;;;;5044347;28;20087;-71
2022/04/27 03:35:13;;;;;;;3.30;1.00;;;15.70;97.20;;;;;;5037318;28;20037;-71
2022/04/27 03:37:39;;;;;;;2.08;0.90;;;15.70;96.70;;;;;;5041034;28;20128;-71
2022/04/27 03:40:05;;;;;;;2.38;0.75;;;15.70;96.20;;;;;;5038106;28;20037;-71
2022/04/27 03:42:31;;;;;;;2.75;0.90;;;15.80;95.90;;;;;;5040917;28;20043;-72
2022/04/27 03:44:57;;;;;;;1.83;0.80;;;15.90;95.70;;;;;;5058514;28;20041;-70
2022/04/27 03:47:23;;;;;;;2.00;0.70;;;16.00;95.60;;;;;;5023861;28;20118;-72
2022/04/27 03:49:51;;;;;;;1.83;0.80;;;15.80;95.90;;;;;;5041878;28;20037;-71
2022/04/27 03:52:18;;;;;;;1.60;0.60;;;15.70;96.10;;;;;;5040487;28;20045;-71
2022/04/27 03:54:44;;;;;;;1.35;0.70;;;15.70;95.10;;;;;;5021772;28;20044;-74
2022/04/27 03:57:10;;;;;;;1.23;0.80;;;15.60;95.30;;;;;;5029312;28;20025;-72
2022/04/27 03:59:36;;;;;;;0.80;0.63;;;15.50;95.30;;;;;;5043104;28;20037;-72
2022/04/27 04:02:02;;;;;;;0.60;0.60;;;15.70;94.80;;;;;;5028754;28;20124;-71
2022/04/27 04:04:28;;;;;;;0.82;0.65;;;15.60;95.00;;;;;;5022717;28;20036;-72
2022/04/27 04:06:55;;;;;;;2.78;0.68;;;15.70;94.70;;;;;;5041513;28;20049;-72
2022/04/27 04:09:21;;;;;;;3.80;0.60;;;15.70;95.10;;;;;;5021159;28;20123;-71
2022/04/27 04:11:47;;;;;;;1.60;0.80;;;15.60;95.10;;;;;;5035220;28;20124;-72
2022/04/27 04:14:12;;;;;;;1.98;0.73;;;15.60;95.00;;;;;;5037484;28;20041;-72
2022/04/27 04:16:38;;;;;;;1.80;0.80;;;15.70;94.30;;;;;;5026980;28;20041;-72
2022/04/27 04:19:04;;;;;;;1.80;0.98;;;15.60;94.50;;;;;;5035852;28;20115;-71
2022/04/27 04:21:30;;;;;;;0.90;0.65;;;15.60;94.20;;;;;;5020307;28;20029;-71
2022/04/27 04:23:57;;;;;;;1.70;0.95;;;15.60;94.30;;;;;;5039329;28;20499;-72
2022/04/27 04:29:07;;;;;;;1.35;0.60;;;15.50;94.30;;;;;;5040390;28;20067;-72
2022/04/27 04:31:34;;;;;;;0.50;0.50;;;15.50;94.40;;;;;;5036981;28;20045;-71
2022/04/27 04:34:00;;;;;;;2.38;0.80;;;15.50;94.50;;;;;;5022829;28;20739;-73
2022/04/27 04:36:26;;;;;;;2.53;0.70;;;15.80;94.20;;;;;;5021578;28;20084;-71
2022/04/27 04:38:52;;;;;;;2.67;1.20;;;15.90;94.10;;;;;;5026954;28;20072;-71
2022/04/27 04:41:18;;;;;;;2.88;1.10;;;15.90;94.20;;;;;;5029783;28;20035;-72
2022/04/27 04:43:44;;;;;;;1.50;0.93;;;15.90;94.30;;;;;;5041677;28;20049;-72
2022/04/27 04:46:10;;;;;;;2.30;1.10;;;15.80;94.10;;;;;;5039302;28;20080;-72
2022/04/27 04:48:37;;;;;;;2.05;0.80;;;15.70;94.40;;;;;;5017473;28;20108;-73
2022/04/27 04:51:03;;;;;;;1.52;0.70;;;15.80;94.10;;;;;;5018828;28;20052;-71
2022/04/27 04:53:30;;;;;;;3.05;0.70;;;15.90;93.40;;;;;;5023060;28;20041;-72
2022/04/27 04:55:56;;;;;;;4.07;0.85;;;15.90;93.80;;;;;;5023508;28;20147;-72
2022/04/27 04:58:22;;;;;;;3.75;1.60;;;15.70;94.10;;;;;;5038287;28;22298;-72
2022/04/27 05:00:50;;;;;;;3.28;1.38;;;15.80;94.40;;;;;;5057818;28;20446;-71
2022/04/27 05:03:16;;;;;;;1.60;1.10;;;15.80;94.20;;;;;;5038478;28;20041;-72
2022/04/27 05:05:43;;;;;;;2.17;1.23;;;15.90;94.10;;;;;;5041251;28;20040;-72
2022/04/27 05:08:09;;;;;;;3.95;1.30;;;15.90;94.10;;;;;;5020785;28;20053;-72
2022/04/27 05:10:36;;;;;;;2.17;1.20;;;15.80;94.50;;;;;;5020872;28;20604;-71
2022/04/27 05:13:03;;;;;;;1.88;1.00;;;16.00;93.80;;;;;;5029604;28;20037;-72
2022/04/27 05:15:29;;;;;;;3.67;1.15;;;15.90;93.70;;;;;;5039876;28;20029;-72
2022/04/27 05:17:55;;;;;;;1.83;1.20;;;16.00;93.90;;;;;;5041502;28;20083;-71
2022/04/27 05:20:21;;;;;;;2.30;1.10;;;16.00;94.50;;;;;;5033006;28;20382;-72
2022/04/27 05:22:47;;;;;;;4.47;1.05;;;16.00;94.30;;;;;;5037590;28;20045;-73
2022/04/27 05:25:14;;;;;;;4.82;1.27;;;16.10;93.70;;;;;;5021090;28;20052;-70
2022/04/27 05:27:40;;;;;;;3.63;1.10;;;16.10;94.60;;;;;;5036297;28;20065;-72
2022/04/27 05:32:52;;;;;;;3.95;1.15;;;16.20;93.90;;;;;;5042933;28;20072;-72
2022/04/27 05:35:18;;;;;;;2.78;1.17;;;16.40;93.20;;;;;;5035569;28;20378;-75
2022/04/27 05:37:44;;;;;;;4.85;2.00;;;16.40;93.90;;;;;;5018550;28;20131;-73
2022/04/27 05:40:11;;;;;;;6.70;2.55;;;16.40;94.30;;;;;;5038468;28;20354;-72
2022/04/27 05:42:39;;;;;;;5.82;2.50;;;16.30;94.50;;;;;;5023983;28;20060;-72
2022/04/27 05:45:06;;;;;;;3.78;1.80;;;16.30;94.60;;;;;;5041666;28;20085;-71
2022/04/27 05:47:32;;;;;;;5.72;2.33;;;16.40;94.80;;;;;;5045027;28;20036;-72
2022/04/27 05:49:58;;;;;;;6.40;3.40;;;16.40;95.10;;;;;;5043807;28;20040;-73
2022/04/27 05:52:24;;;;;;;5.05;2.92;;;16.40;95.30;;;;;;5043988;28;20226;-73
2022/04/27 05:54:51;;;;;;;8.50;3.33;;;16.40;95.70;;;;;;5044496;28;20560;-72
2022/04/27 05:57:19;;;;;;;7.22;2.80;;;16.50;96.10;;;;;;5044682;28;20071;-72
2022/04/27 05:59:47;;;;;;;6.65;2.80;;;16.50;96.00;;;;;;5043743;28;20259;-72
2022/04/27 06:02:14;;;;;;;5.00;2.72;;;16.60;96.00;;;;;;5041220;28;20090;-72
2022/04/27 06:04:40;;;;;;;7.38;2.15;;;16.60;96.20;;;;;;5023109;28;20504;-74
2022/04/27 06:07:07;;;;;;;6.40;2.53;;;16.70;96.00;;;;;;5025795;28;20045;-72
2022/04/27 06:09:34;;;;;;;7.18;2.90;;;16.70;96.00;;;;;;5043550;28;20056;-74
2022/04/27 06:12:00;;;;;;;10.75;2.85;;;16.80;96.20;;;;;;5023492;28;20512;-73
2022/04/27 06:14:26;;;;;;;7.38;3.38;;;16.80;96.00;;;;;;5027872;28;20037;-72
2022/04/27 06:16:52;;;;;;;9.02;3.05;;;16.90;96.30;;;;;;5055353;28;20492;-73
2022/04/27 06:19:21;;;;;;;5.22;3.08;;;17.00;96.40;;;;;;5016713;28;20702;-73
2022/04/27 06:21:47;;;;;;;11.23;3.35;;;17.10;96.50;;;;;;5032891;28;20045;-72
2022/04/27 06:24:14;;;;;;;9.80;2.92;;;17.10;96.40;;;;;;5037326;28;20525;-73
2022/04/27 06:26:40;;;;;;;6.35;3.28;;;17.20;96.20;;;;;;5021260;28;20365;-73
2022/04/27 06:29:06;;;;;;;8.73;3.50;;;17.30;96.60;;;;;;5040835;28;20071;-72
2022/04/27 06:31:32;;;;;;;11.13;3.90;;;17.40;96.80;;;;;;5028492;28;20048;-72
2022/04/27 06:33:58;;;;;;;11.07;4.78;;;17.40;96.90;;;;;;5038780;28;20568;-70
2022/04/27 06:36:24;;;;;;;15.80;4.50;;;17.50;97.50;;;;;;5029318;28;20377;-73
2022/04/27 06:38:50;;;;;;;16.83;4.20;;;17.60;97.00;;;;;;5042973;28;20134;-73
2022/04/27 06:41:16;;;;;;;12.93;4.40;;;17.70;97.10;;;;;;5041857;28;20037;-74
2022/04/27 06:43:42;;;;;;;10.70;5.07;;;17.80;97.10;;;;;;5018276;28;20118;-76
2022/04/27 06:46:09;;;;;;;17.02;5.03;;;18.00;97.00;;;;;;5010013;28;20041;-73
2022/04/27 06:48:34;;;;;;;14.82;5.55;;;18.10;97.00;;;;;;5027978;28;20037;-73
2022/04/27 06:51:01;;;;;;;14.25;5.20;;;18.20;97.30;;;;;;5047400;28;20060;-72
2022/04/27 06:53:27;;;;;;;12.63;4.95;;;18.30;97.10;;;;;;5028417;28;20087;-73
2022/04/27 06:55:53;;;;;;;8.65;4.53;;;18.40;97.00;;;;;;5031936;28;20036;-72
2022/04/27 06:58:19;;;;;;;10.20;4.47;;;18.40;96.50;;;;;;5023336;28;20080;-73
2022/04/27 07:00:45;;;;;;;10.18;4.85;;;18.50;96.40;;;;;;5020093;28;20480;-74
2022/04/27 07:03:12;;;;;;;10.80;5.43;;;18.60;96.50;;;;;;5029030;28;20069;-72
2022/04/27 07:05:38;;;;;;;13.10;5.40;;;18.50;96.70;;;;;;5023348;28;20040;-73
2022/04/27 07:08:06;;;;;;;14.68;5.32;;;18.60;96.40;;;;;;5029883;28;20427;-72
2022/04/27 07:10:36;;;;;;;21.25;6.28;;;18.60;96.50;;;;;;5038165;28;20037;-72
2022/04/27 07:13:04;;;;;;;17.52;5.80;;;18.70;96.80;;;;;;5045624;28;20059;-74
2022/04/27 07:15:30;;;;;;;16.75;6.32;;;18.70;96.70;;;;;;5039086;28;20963;-73
2022/04/27 07:17:56;;;;;;;14.65;5.85;;;18.70;96.90;;;;;;5031057;28;20033;-73
2022/04/27 07:20:22;;;;;;;14.20;5.88;;;18.70;96.50;;;;;;5040824;28;20049;-73
2022/04/27 07:22:49;;;;;;;14.90;5.60;;;18.80;96.30;;;;;;5024383;28;20025;-72
2022/04/27 07:25:18;;;;;;;18.73;6.65;;;18.90;96.20;;;;;;5038965;28;20040;-74
2022/04/27 07:27:45;;;;;;;17.90;5.78;;;19.00;96.30;;;;;;5026154;28;20643;-72
2022/04/27 07:30:11;;;;;;;17.50;6.13;;;19.30;96.00;;;;;;5054880;28;20049;-73
2022/04/27 07:32:37;;;;;;;38.97;6.88;;;19.40;96.00;;;;;;5035790;28;20044;-72
2022/04/27 07:35:03;;;;;;;28.90;6.60;;;19.40;95.90;;;;;;5040760;28;20064;-72
2022/04/27 07:37:29;;;;;;;21.35;7.20;;;19.40;96.00;;;;;;5039905;28;20036;-73
2022/04/27 07:39:55;;;;;;;19.73;6.45;;;19.60;95.90;;;;;;5037783;28;20041;-73
2022/04/27 07:42:21;;;;;;;18.90;7.20;;;19.70;95.90;;;;;;5021933;28;20037;-72
2022/04/27 07:44:47;;;;;;;21.90;6.82;;;19.90;95.70;;;;;;5039818;28;20053;-73
2022/04/27 07:47:15;;;;;;;17.98;6.28;;;20.00;95.60;;;;;;5039569;28;20045;-73
2022/04/27 07:49:41;;;;;;;22.45;6.65;;;20.00;95.30;;;;;;5042795;28;20048;-72
2022/04/27 07:52:06;;;;;;;13.15;6.53;;;20.10;95.20;;;;;;5005003;28;20467;-73
2022/04/27 07:54:33;;;;;;;12.20;6.30;;;20.20;95.10;;;;;;5023809;28;20042;-72
2022/04/27 07:57:00;;;;;;;16.48;7.18;;;20.30;95.00;;;;;;5024685;28;20052;-72
2022/04/27 07:59:26;;;;;;;18.92;7.05;;;20.40;95.00;;;;;;5019031;28;20037;-72
2022/04/27 08:01:52;;;;;;;14.40;6.80;;;20.50;95.00;;;;;;5020708;28;20114;-72
2022/04/27 08:04:18;;;;;;;19.17;7.30;;;20.50;94.80;;;;;;5014866;28;20046;-72
2022/04/27 08:06:44;;;;;;;18.63;7.05;;;20.60;94.70;;;;;;5025892;28;20049;-72
2022/04/27 08:09:09;;;;;;;23.80;7.57;;;20.50;94.70;;;;;;5018534;28;20041;-73
2022/04/27 08:11:36;;;;;;;18.13;7.13;;;20.60;94.80;;;;;;5019409;28;20497;-72
2022/04/27 08:14:02;;;;;;;18.73;7.07;;;20.70;94.70;;;;;;5023041;28;20049;-73
2022/04/27 08:16:27;;;;;;;18.73;6.90;;;20.70;94.40;;;;;;5023187;28;20033;-72
2022/04/27 08:18:54;;;;;;;17.02;7.13;;;20.90;94.40;;;;;;5019103;28;20042;-73
2022/04/27 08:21:21;;;;;;;13.95;6.55;;;20.80;94.10;;;;;;5030801;28;20065;-71
2022/04/27 08:23:48;;;;;;;18.70;6.72;;;20.80;94.00;;;;;;5019819;28;20041;-72
2022/04/27 08:26:15;;;;;;;14.45;6.47;;;20.80;93.90;;;;;;5021736;28;20096;-72
2022/04/27 08:28:43;;;;;;;18.80;6.07;;;21.10;93.70;;;;;;5012783;28;20124;-73
2022/04/27 08:31:14;;;;;;;17.67;6.03;;;21.20;93.50;;;;;;5017491;28;20030;-73
2022/04/27 08:33:40;;;;;;;18.23;5.55;;;21.90;93.20;;;;;;5018976;28;20045;-73
2022/04/27 08:36:07;;;;;;;15.65;5.85;;;22.90;92.40;;;;;;5018717;28;20477;-73
2022/04/27 08:38:35;;;;;;;14.48;4.95;;;23.40;91.80;;;;;;5024063;28;20626;-74
2022/04/27 08:41:01;;;;;;;10.60;4.30;;;23.70;91.00;;;;;;5014794;28;20130;-73
2022/04/27 08:43:28;;;;;;;14.90;4.75;;;24.00;89.90;;;;;;5039436;28;20487;-73
2022/04/27 08:45:55;;;;;;;11.45;4.13;;;24.40;90.00;;;;;;5028304;28;20583;-74
2022/04/27 08:48:22;;;;;;;17.35;4.18;;;24.70;88.70;;;;;;5038832;28;20051;-73
2022/04/27 08:50:50;;;;;;;8.20;3.80;;;24.10;89.00;;;;;;5021786;28;20715;-73
2022/04/27 08:53:16;;;;;;;6.53;2.97;;;23.60;88.30;;;;;;5025453;28;20070;-72
2022/04/27 08:55:44;;;;;;;8.23;3.15;;;23.50;88.50;;;;;;5040503;28;20026;-73
2022/04/27 08:58:14;;;;;;;9.45;2.70;;;24.40;87.70;;;;;;5037590;28;20439;-76
2022/04/27 09:00:42;;;;;;;9.50;2.70;;;24.70;86.20;;;;;;5054000;28;20032;-72
2022/04/27 09:03:29;;;;;;;7.05;3.35;;;25.20;85.20;;;;;;5022048;28;20041;-73
2022/04/27 09:06:05;;;;;;;5.88;3.35;;;25.50;84.80;;;;;;5037513;28;20541;-73
2022/04/27 09:08:41;;;;;;;11.07;3.70;;;25.00;85.20;;;;;;5037759;28;20048;-73
2022/04/27 09:11:29;;;;;;;9.30;3.20;;;23.70;86.40;;;;;;5039659;28;20045;-72
2022/04/27 09:14:00;;;;;;;7.43;2.65;;;23.50;87.10;;;;;;5036588;28;20505;-73
2022/04/27 09:22:11;;;;;;;6.88;2.92;;;24.30;84.00;;;;;;5041242;28;20044;-75
2022/04/27 09:24:52;;;;;;;5.80;2.95;;;24.00;84.80;;;;;;5022695;28;20115;-72
2022/04/27 09:27:28;;;;;;;11.90;3.53;;;23.90;84.00;;;;;;5051527;28;20037;-73
2022/04/27 09:30:02;;;;;;;7.05;3.03;;;24.10;84.10;;;;;;5022999;28;20048;-72
2022/04/27 09:32:30;;;;;;;6.82;3.60;;;24.00;84.90;;;;;;5049375;28;20045;-72
2022/04/27 09:35:03;;;;;;;9.60;4.00;;;24.00;86.10;;;;;;5036459;28;20041;-74
2022/04/27 09:37:34;;;;;;;12.73;3.95;;;24.80;85.50;;;;;;5025580;28;20038;-72
2022/04/27 09:40:08;;;;;;;24.27;5.97;;;24.80;85.30;;;;;;5054716;28;20092;-73
2022/04/27 09:42:37;;;;;;;6.78;3.08;;;23.50;85.90;;;;;;5023306;28;20045;-73
2022/04/27 09:45:20;;;;;;;18.42;3.30;;;23.80;85.20;;;;;;5039958;28;20155;-72
2022/04/27 09:48:03;;;;;;;6.85;2.75;;;23.90;85.00;;;;;;5034165;28;20476;-71
2022/04/27 09:50:55;;;;;;;7.22;2.65;;;24.10;85.00;;;;;;5026783;28;20525;-74
2022/04/27 09:53:21;;;;;;;9.90;2.87;;;24.70;83.60;;;;;;5015636;28;20050;-73
2022/04/27 09:55:50;;;;;;;7.47;2.88;;;24.60;82.70;;;;;;5019884;28;20048;-72
2022/04/27 09:58:19;;;;;;;6.10;2.67;;;24.70;82.80;;;;;;5016046;28;20096;-72
2022/04/27 10:00:47;;;;;;;15.95;3.25;;;24.50;82.60;;;;;;5000793;28;20049;-73
2022/04/27 10:03:20;;;;;;;9.40;3.08;;;24.00;83.30;;;;;;4983737;28;20041;-73
2022/04/27 10:05:48;;;;;;;9.38;2.90;;;24.30;83.70;;;;;;4995446;28;20098;-72
2022/04/27 10:08:14;;;;;;;6.03;2.60;;;23.30;83.70;;;;;;4990207;28;20101;-72
2022/04/27 10:10:42;;;;;;;5.35;2.92;;;23.10;84.80;;;;;;5006692;28;20080;-72
2022/04/27 10:13:14;;;;;;;5.05;1.80;;;22.80;85.30;;;;;;4995612;28;28282;-72
2022/04/27 10:15:45;;;;;;;6.25;1.80;;;22.50;84.10;;;;;;4997898;28;20425;-72
2022/04/27 10:18:15;;;;;;;7.20;2.23;;;23.00;83.70;;;;;;4999214;28;20064;-72
2022/04/27 10:20:42;;;;;;;7.35;2.10;;;23.40;83.50;;;;;;5001034;28;20125;-72
2022/04/27 10:23:32;;;;;;;5.22;2.10;;;23.20;83.90;;;;;;4999721;28;20099;-73
2022/04/27 10:26:20;;;;;;;4.75;1.70;;;23.80;83.10;;;;;;4997826;28;20064;-73
2022/04/27 10:28:56;;;;;;;5.40;1.90;;;23.60;82.70;;;;;;5001615;28;20041;-72
2022/04/27 10:31:40;;;;;;;3.90;2.40;;;23.30;82.90;;;;;;5000843;28;24647;-73
2022/04/27 10:34:27;;;;;;;6.20;2.38;;;24.00;82.40;;;;;;5002605;28;20060;-72
2022/04/27 10:36:57;;;;;;;9.02;2.25;;;24.30;82.90;;;;;;5004682;28;20026;-72
2022/04/27 10:39:27;;;;;;;9.77;3.00;;;24.30;83.00;;;;;;5026408;28;20075;-73
2022/04/27 10:42:19;;;;;;;6.47;2.35;;;24.40;82.40;;;;;;5002563;28;20504;-72
2022/04/27 10:44:50;;;;;;;10.90;2.90;;;23.50;83.40;;;;;;5008327;28;20211;-74
2022/04/27 10:47:18;;;;;;;9.23;2.60;;;23.40;83.90;;;;;;5024787;28;20052;-75
2022/04/27 10:49:49;;;;;;;6.13;1.95;;;22.80;84.70;;;;;;5032348;28;20049;-74
2022/04/27 10:52:22;;;;;;;11.27;2.67;;;22.70;85.10;;;;;;5043363;28;20118;-73
2022/04/27 10:54:49;;;;;;;14.88;3.05;;;22.30;86.20;;;;;;5042587;28;20147;-73
2022/04/27 10:57:19;;;;;;;7.43;2.65;;;22.10;88.30;;;;;;5012978;28;20036;-73
2022/04/27 10:59:51;;;;;;;8.02;2.95;;;22.20;87.50;;;;;;5016711;28;20035;-73
2022/04/27 11:02:39;;;;;;;7.90;2.30;;;22.00;87.70;;;;;;5041179;28;20033;-73
2022/04/27 11:05:19;;;;;;;11.15;3.00;;;22.20;87.50;;;;;;5039656;28;20040;-74
2022/04/27 11:08:03;;;;;;;8.00;2.15;;;22.50;86.90;;;;;;5041326;28;20442;-74
2022/04/27 11:10:31;;;;;;;5.05;1.70;;;23.20;85.50;;;;;;5041224;28;20033;-74
2022/04/27 11:12:57;;;;;;;8.52;2.45;;;23.20;85.50;;;;;;5030773;28;20037;-73
2022/04/27 11:15:25;;;;;;;5.18;2.10;;;23.70;85.10;;;;;;5037925;28;20132;-73
2022/04/27 11:18:01;;;;;;;8.10;1.92;;;23.90;84.60;;;;;;5031844;28;20032;-74
2022/04/27 11:20:27;;;;;;;7.18;1.92;;;23.80;84.20;;;;;;5038566;28;20033;-75
2022/04/27 11:22:54;;;;;;;6.00;2.33;;;23.80;84.90;;;;;;5038002;28;20036;-73
2022/04/27 11:25:28;;;;;;;15.90;3.00;;;24.30;84.00;;;;;;5054471;28;20041;-74
2022/04/27 11:27:55;;;;;;;7.95;2.60;;;24.30;84.80;;;;;;5039739;28;20076;-73
2022/04/27 11:30:23;;;;;;;13.90;2.88;;;24.70;84.40;;;;;;5020914;28;20049;-74
2022/04/27 11:32:51;;;;;;;17.83;3.55;;;24.10;85.50;;;;;;5041973;28;20038;-74
2022/04/27 11:35:21;;;;;;;9.73;3.03;;;23.50;87.40;;;;;;5026727;28;20033;-75
2022/04/27 11:37:48;;;;;;;5.50;2.38;;;23.90;86.10;;;;;;5058408;28;20048;-74
2022/04/27 11:40:16;;;;;;;15.65;2.88;;;23.40;85.90;;;;;;5024441;28;20029;-74
2022/04/27 11:42:48;;;;;;;7.63;2.53;;;24.10;85.10;;;;;;5040065;28;20152;-75
2022/04/27 11:45:20;;;;;;;6.32;2.08;;;24.20;84.90;;;;;;5022518;28;20243;-75
2022/04/27 11:47:59;;;;;;;8.52;2.63;;;24.20;83.80;;;;;;5043727;28;20133;-75
2022/04/27 11:50:30;;;;;;;10.52;2.35;;;23.50;84.20;;;;;;5021360;28;20037;-74
2022/04/27 11:53:13;;;;;;;9.13;2.20;;;24.30;83.70;;;;;;5026720;28;20048;-75
2022/04/27 11:55:40;;;;;;;6.20;1.95;;;25.40;82.30;;;;;;5027729;28;20041;-74
2022/04/27 11:58:08;;;;;;;7.38;2.20;;;24.90;82.50;;;;;;5038985;28;20044;-73
2022/04/27 12:00:35;;;;;;;7.50;2.30;;;24.50;83.20;;;;;;5010703;28;20045;-75
2022/04/27 12:03:10;;;;;;;6.18;1.70;;;24.80;83.00;;;;;;5015246;28;20037;-73
2022/04/27 12:05:38;;;;;;;5.07;1.65;;;24.90;82.50;;;;;;5038498;28;20043;-74
2022/04/27 12:08:09;;;;;;;9.05;2.95;;;24.70;82.20;;;;;;5039526;28;20045;-74
2022/04/27 12:10:54;;;;;;;6.22;1.85;;;24.50;82.80;;;;;;5010120;28;20412;-75
2022/04/27 12:13:21;;;;;;;9.75;1.95;;;25.40;82.20;;;;;;5037940;28;20037;-75
2022/04/27 12:15:54;;;;;;;6.90;1.80;;;25.40;81.60;;;;;;5041846;28;20465;-74
2022/04/27 12:18:27;;;;;;;6.50;2.05;;;24.70;80.60;;;;;;5021240;28;20029;-73
2022/04/27 12:20:55;;;;;;;7.78;2.10;;;24.80;81.90;;;;;;5025268;28;20044;-74
2022/04/27 12:23:23;;;;;;;4.97;2.25;;;24.30;82.50;;;;;;5044860;28;20506;-73
2022/04/27 12:25:54;;;;;;;7.30;2.00;;;24.00;83.60;;;;;;5042891;28;20025;-75
2022/04/27 12:28:24;;;;;;;6.90;2.15;;;24.10;83.70;;;;;;5041639;28;20124;-74
2022/04/27 12:30:54;;;;;;;9.98;2.20;;;23.70;84.10;;;;;;5023248;28;20079;-74
2022/04/27 12:33:29;;;;;;;8.32;2.25;;;23.30;84.30;;;;;;5040844;28;20132;-76
2022/04/27 12:39:07;;;;;;;5.75;2.03;;;23.00;85.50;;;;;;5038637;28;20504;-74
2022/04/27 12:41:42;;;;;;;6.30;2.05;;;23.00;85.10;;;;;;5034606;28;20029;-75
2022/04/27 12:44:09;;;;;;;6.80;2.25;;;23.40;84.80;;;;;;5041467;28;20143;-73
2022/04/27 12:46:38;;;;;;;8.95;1.90;;;23.00;84.40;;;;;;5026255;28;20041;-74
2022/04/27 12:49:07;;;;;;;6.57;2.15;;;23.50;84.50;;;;;;5039258;28;20400;-73
2022/04/27 12:51:35;;;;;;;5.75;1.75;;;23.70;84.10;;;;;;5030807;28;20099;-74
2022/04/27 12:54:04;;;;;;;5.30;2.20;;;23.10;84.60;;;;;;5026147;28;20041;-74
2022/04/27 12:56:35;;;;;;;4.63;1.45;;;23.70;84.20;;;;;;5013556;28;20109;-73
2022/04/27 12:59:08;;;;;;;5.60;1.75;;;23.20;82.50;;;;;;5039896;28;20045;-73
2022/04/27 13:01:36;;;;;;;2.17;1.00;;;23.00;82.80;;;;;;5014360;28;20037;-73
2022/04/27 13:04:02;;;;;;;3.63;1.10;;;22.60;82.80;;;;;;5041165;28;20043;-73
2022/04/27 13:06:32;;;;;;;3.17;1.42;;;23.00;83.00;;;;;;5009673;28;20044;-74
2022/04/27 13:11:57;;;;;;;3.88;1.60;;;23.20;82.80;;;;;;5036319;28;20048;-74
2022/04/27 13:14:27;;;;;;;5.28;1.83;;;23.00;83.00;;;;;;5037948;28;20048;-75